4OH4 weather

Millertime Airport
Orient, Ohio, United States

Public forecast

Using degrees Fahrenheit for public forecast. Weather courtesy of forecast.io.

Closest aviation weather report (METAR) to Millertime Airport

Closest report is Bolton Field, 6.6 nm (12.2 km) N. Retrieved 2020/06/05 21:45 UTC (1 hour ago):

KTZR 052145Z 20010G15KT 10SM SKC 28/20 A2987

Closest aviation forecast (TAF) to Millertime Airport

Closest forecast is Rickenbacker International Airport, 8.8 nm (16.3 km) E. Retrieved 2020/06/05 18:48 UTC (4 hours ago):

TAF KLCK 051745Z 0518/0618 VRB03KT P6SM SCT025 BKN250 FM061200 33007KT P6SM FEW040